Time;durP1;ratioP1;P1;durP2;ratioP2;P2;SDS_P1;SDS_P2;PMS_P1;PMS_P2;Temp;Humidity;BMP_temperature;BMP_pressure;BME280_temperature;BME280_humidity;BME280_pressure;Samples;Min_cycle;Max_cycle;Signal;HPM_P1;HPM_P2
2022/01/08 00:01:34;;;;;;;12.13;10.88;;;2.00;99.90;;;;;;4982179;28;89449;-38
2022/01/08 00:04:00;;;;;;;12.70;10.85;;;2.00;99.90;;;;;;4981009;28;90043;-47
2022/01/08 00:06:25;;;;;;;20.98;10.73;;;1.90;99.90;;;;;;4980415;28;89384;-38
2022/01/08 00:08:51;;;;;;;11.02;9.73;;;1.90;99.90;;;;;;4980535;28;87767;-44
2022/01/08 00:11:24;;;;;;;17.35;11.52;;;1.90;99.90;;;;;;4982295;28;89799;-38
2022/01/08 00:13:50;;;;;;;15.52;11.35;;;1.90;99.90;;;;;;4981000;28;90866;-38
2022/01/08 00:16:15;;;;;;;16.73;10.82;;;1.90;99.90;;;;;;4981028;28;88913;-42
2022/01/08 00:18:41;;;;;;;11.70;10.50;;;1.90;99.90;;;;;;4980407;28;89199;-40
2022/01/08 00:21:06;;;;;;;11.30;10.07;;;1.90;99.90;;;;;;4981117;28;87640;-39
2022/01/08 00:23:32;;;;;;;12.52;10.38;;;1.90;99.90;;;;;;4980210;28;90460;-41
2022/01/08 00:26:01;;;;;;;14.25;10.82;;;2.00;99.90;;;;;;4980896;28;89661;-39
2022/01/08 00:28:26;;;;;;;;;;;2.00;99.90;;;;;;4981315;28;87493;-37
2022/01/08 00:30:52;;;;;;;11.30;9.90;;;1.90;99.90;;;;;;4965872;28;90115;-43
2022/01/08 00:33:19;;;;;;;12.45;9.52;;;1.90;99.90;;;;;;4981299;28;90225;-46
2022/01/08 00:35:44;;;;;;;12.98;9.35;;;1.90;99.90;;;;;;4982142;28;90145;-35
2022/01/08 00:38:10;;;;;;;17.17;8.82;;;1.90;99.90;;;;;;4981973;28;88187;-42
2022/01/08 00:40:36;;;;;;;15.02;9.85;;;1.80;99.90;;;;;;4982428;28;89808;-41
2022/01/08 00:43:01;;;;;;;10.82;8.13;;;1.80;99.90;;;;;;4963817;28;90413;-39
2022/01/08 00:45:27;;;;;;;12.70;8.95;;;1.80;99.90;;;;;;4981473;28;89552;-36
2022/01/08 00:47:52;;;;;;;16.48;9.18;;;1.80;99.90;;;;;;4981889;28;88283;-39
2022/01/08 00:50:18;;;;;;;14.35;9.02;;;1.90;99.90;;;;;;4981413;28;88443;-39
2022/01/08 00:52:44;;;;;;;9.52;7.45;;;1.90;99.90;;;;;;4981653;28;90231;-43
2022/01/08 00:55:10;;;;;;;11.50;8.15;;;1.90;99.90;;;;;;4980608;28;89543;-38
2022/01/08 00:57:36;;;;;;;11.93;8.20;;;1.90;99.90;;;;;;4980941;28;87811;-35
2022/01/08 01:00:06;;;;;;;9.95;7.13;;;1.90;99.90;;;;;;4981619;28;89681;-43
2022/01/08 01:02:31;;;;;;;10.05;8.23;;;1.90;99.90;;;;;;4980587;28;91701;-38
2022/01/08 01:04:57;;;;;;;8.60;6.95;;;1.90;99.90;;;;;;4980679;28;89427;-36
2022/01/08 01:07:23;;;;;;;16.85;7.72;;;1.90;99.90;;;;;;4981975;28;87450;-37
2022/01/08 01:09:48;;;;;;;10.55;7.78;;;1.90;99.90;;;;;;4981326;28;89898;-37
2022/01/08 01:12:14;;;;;;;10.80;7.38;;;1.90;99.90;;;;;;4981245;28;90230;-38
2022/01/08 01:14:39;;;;;;;9.25;7.70;;;1.90;99.90;;;;;;4980190;28;89495;-37
2022/01/08 01:17:05;;;;;;;12.23;8.20;;;1.90;99.90;;;;;;4981740;28;88969;-40
2022/01/08 01:19:31;;;;;;;11.45;8.57;;;1.90;99.90;;;;;;4981426;28;89884;-36
2022/01/08 01:21:59;;;;;;;12.60;8.65;;;1.90;99.90;;;;;;4982551;28;90397;-44
2022/01/08 01:24:26;;;;;;;11.32;8.73;;;1.90;99.90;;;;;;4984624;28;90092;-43
2022/01/08 01:43:23;;;;;;;13.70;9.93;;;1.80;99.90;;;;;;4983619;28;90102;-42
2022/01/08 01:48:54;;;;;;;14.57;10.20;;;1.70;99.90;;;;;;4942097;28;88289;-35
2022/01/08 01:51:21;;;;;;;10.50;9.30;;;1.70;99.90;;;;;;4924624;28;88579;-38
2022/01/08 01:53:48;;;;;;;11.57;10.45;;;1.70;99.90;;;;;;4961594;28;89111;-38
2022/01/08 01:56:18;;;;;;;12.05;10.00;;;1.70;99.90;;;;;;4982335;28;88678;-41
2022/01/08 01:58:44;;;;;;;13.05;10.68;;;1.70;99.90;;;;;;4982375;28;88677;-42
2022/01/08 02:01:09;;;;;;;11.68;10.63;;;1.60;99.90;;;;;;4983267;28;89398;-40
2022/01/08 02:03:35;;;;;;;16.13;12.35;;;1.60;99.90;;;;;;4982056;28;89330;-35
2022/01/08 02:06:01;;;;;;;12.95;11.52;;;1.60;99.90;;;;;;4983393;28;90298;-40
2022/01/08 02:08:28;;;;;;;12.77;11.55;;;1.60;99.90;;;;;;4982425;28;88143;-37
2022/01/08 02:10:54;;;;;;;14.27;11.82;;;1.60;99.90;;;;;;4982175;28;89958;-38
2022/01/08 02:13:24;;;;;;;20.20;12.73;;;1.60;99.90;;;;;;4983185;28;90145;-38
2022/01/08 02:15:52;;;;;;;18.88;13.38;;;1.60;99.90;;;;;;4983439;28;89666;-42
2022/01/08 02:18:18;;;;;;;18.27;13.15;;;1.50;99.90;;;;;;4983064;28;89891;-43
2022/01/08 02:20:44;;;;;;;13.52;11.85;;;1.50;99.90;;;;;;4982378;28;87617;-39
2022/01/08 02:23:09;;;;;;;16.58;13.23;;;1.50;99.90;;;;;;4982410;28;90466;-38
2022/01/08 02:25:35;;;;;;;15.77;14.18;;;1.50;99.90;;;;;;4982287;28;89754;-39
2022/01/08 02:28:04;;;;;;;22.23;14.32;;;1.50;99.90;;;;;;4982462;28;88913;-41
2022/01/08 02:30:30;;;;;;;15.98;12.85;;;1.50;99.90;;;;;;4982254;28;88700;-39
2022/01/08 02:32:56;;;;;;;17.30;13.80;;;1.50;99.90;;;;;;4982069;28;90253;-36
2022/01/08 02:35:22;;;;;;;18.00;13.13;;;1.50;99.90;;;;;;4981867;28;89675;-42
2022/01/08 02:37:49;;;;;;;19.38;14.60;;;1.50;99.90;;;;;;4982206;28;87553;-34
2022/01/08 02:40:15;;;;;;;15.55;13.95;;;1.50;99.90;;;;;;4982484;28;88569;-37
2022/01/08 02:42:50;;;;;;;17.33;12.75;;;1.50;99.90;;;;;;4982098;28;90453;-40
2022/01/08 02:45:17;;;;;;;16.70;12.77;;;1.50;99.90;;;;;;4982390;28;89394;-43
2022/01/08 02:47:43;;;;;;;17.02;13.70;;;1.50;99.90;;;;;;4981937;28;87644;-38
2022/01/08 02:50:09;;;;;;;15.57;11.93;;;1.50;99.90;;;;;;4982471;28;89864;-44
2022/01/08 02:52:39;;;;;;;15.07;13.25;;;1.50;99.90;;;;;;4982148;28;90091;-35
2022/01/08 02:55:05;;;;;;;18.38;13.57;;;1.50;99.90;;;;;;4981986;28;89588;-37
2022/01/08 02:57:30;;;;;;;15.95;13.07;;;1.40;99.90;;;;;;4980788;28;88693;-43
2022/01/08 02:59:56;;;;;;;17.90;12.88;;;1.40;99.90;;;;;;4982763;28;88277;-44
2022/01/08 03:02:21;;;;;;;12.63;10.32;;;1.40;99.90;;;;;;4981354;28;90226;-41
2022/01/08 03:04:52;;;;;;;16.42;12.15;;;1.40;99.90;;;;;;4982114;28;89917;-37
2022/01/08 03:07:18;;;;;;;12.95;11.57;;;1.40;99.90;;;;;;4981537;28;89597;-43
2022/01/08 03:09:45;;;;;;;15.63;11.55;;;1.50;99.90;;;;;;4982003;28;89367;-36
2022/01/08 03:12:10;;;;;;;12.55;11.23;;;1.50;99.90;;;;;;4981768;28;88831;-45
2022/01/08 03:14:36;;;;;;;14.40;12.10;;;1.50;99.90;;;;;;4980674;28;89880;-44
2022/01/08 03:17:02;;;;;;;11.85;10.65;;;1.40;99.90;;;;;;4981589;28;89618;-43
2022/01/08 03:19:27;;;;;;;15.40;11.23;;;1.40;99.90;;;;;;4981707;28;88010;-39
2022/01/08 03:21:54;;;;;;;13.55;11.98;;;1.40;99.90;;;;;;4981451;28;89027;-37
2022/01/08 03:24:29;;;;;;;21.45;12.20;;;1.30;99.90;;;;;;4980802;28;90180;-38
2022/01/08 03:26:55;;;;;;;12.25;10.50;;;1.30;99.90;;;;;;4981977;28;87489;-40
2022/01/08 03:29:21;;;;;;;12.95;9.95;;;1.30;99.90;;;;;;4981786;28;89812;-34
2022/01/08 03:31:47;;;;;;;16.23;11.10;;;1.30;99.90;;;;;;4982160;28;91325;-39
2022/01/08 03:34:12;;;;;;;14.55;11.35;;;1.30;99.90;;;;;;4981359;28;89444;-40
2022/01/08 03:36:38;;;;;;;15.00;10.82;;;1.30;99.90;;;;;;4980878;28;90343;-39
2022/01/08 03:39:04;;;;;;;12.38;9.55;;;1.30;99.90;;;;;;4981241;28;87703;-43
2022/01/08 03:41:30;;;;;;;13.13;10.00;;;1.30;99.90;;;;;;4982277;28;90289;-40
2022/01/08 03:43:55;;;;;;;14.38;10.77;;;1.30;99.90;;;;;;4979942;28;89782;-41
2022/01/08 03:46:22;;;;;;;14.40;10.43;;;1.30;99.90;;;;;;4981290;28;89077;-41
2022/01/08 03:49:30;;;;;;;14.05;9.98;;;1.30;99.90;;;;;;4981203;28;88843;-39
2022/01/08 03:51:37;;;;;;;15.35;11.27;;;1.20;99.90;;;;;;4977853;28;91023;-37
2022/01/08 03:54:03;;;;;;;14.20;9.93;;;1.30;99.90;;;;;;4981079;28;88708;-41
2022/01/08 03:56:28;;;;;;;16.35;10.30;;;1.30;99.90;;;;;;4981574;28;88768;-36
2022/01/08 03:58:54;;;;;;;10.30;9.02;;;1.30;99.90;;;;;;4980870;28;90235;-37
2022/01/08 04:01:19;;;;;;;12.30;10.02;;;1.30;99.90;;;;;;4981782;28;90985;-37
2022/01/08 04:03:45;;;;;;;11.40;8.93;;;1.30;99.90;;;;;;4980687;28;89861;-36
2022/01/08 04:06:11;;;;;;;13.57;9.35;;;1.30;99.90;;;;;;4982383;28;87639;-36
2022/01/08 04:08:36;;;;;;;11.82;9.68;;;1.30;99.90;;;;;;4981829;28;89787;-34
2022/01/08 04:11:02;;;;;;;10.60;8.75;;;1.40;99.90;;;;;;4981539;28;90425;-45
2022/01/08 04:13:31;;;;;;;14.55;10.05;;;1.40;99.90;;;;;;4981765;28;89571;-34
2022/01/08 04:16:09;;;;;;;12.05;8.73;;;1.30;99.90;;;;;;4981566;28;87911;-36
2022/01/08 04:18:34;;;;;;;9.90;8.52;;;1.30;99.90;;;;;;4964029;28;89398;-36
2022/01/08 04:23:40;;;;;;;15.48;8.95;;;1.30;99.90;;;;;;4980850;28;90695;-43
2022/01/08 04:26:06;;;;;;;10.25;7.78;;;1.30;99.90;;;;;;4981655;28;87530;-39
2022/01/08 04:28:32;;;;;;;11.23;9.23;;;1.30;99.90;;;;;;4981460;28;88824;-37
2022/01/08 04:30:57;;;;;;;9.70;8.70;;;1.30;99.90;;;;;;4981849;28;90002;-43
2022/01/08 04:33:23;;;;;;;12.25;9.88;;;1.30;99.90;;;;;;4980856;28;88962;-40
2022/01/08 04:35:49;;;;;;;12.23;9.18;;;1.20;99.90;;;;;;4981258;28;88688;-45
2022/01/08 04:38:14;;;;;;;14.00;9.63;;;1.20;99.90;;;;;;4981813;28;89985;-34
2022/01/08 04:40:40;;;;;;;14.90;10.50;;;1.20;99.90;;;;;;4981223;28;90364;-36
2022/01/08 04:43:06;;;;;;;11.13;9.75;;;1.20;99.90;;;;;;4980664;28;89803;-42
2022/01/08 04:45:32;;;;;;;14.85;9.20;;;1.20;99.90;;;;;;4981131;28;89200;-39
2022/01/08 04:48:00;;;;;;;12.40;9.82;;;1.20;99.90;;;;;;4981250;28;88387;-43
2022/01/08 04:50:28;;;;;;;16.35;11.38;;;1.20;99.90;;;;;;4981484;28;90693;-44
2022/01/08 04:52:54;;;;;;;16.35;10.18;;;1.20;99.90;;;;;;4980441;28;88708;-42
2022/01/08 04:55:20;;;;;;;17.35;9.23;;;1.20;99.90;;;;;;4980111;28;88895;-38
2022/01/08 04:57:46;;;;;;;14.23;10.60;;;1.20;99.90;;;;;;4984145;28;89073;-45
2022/01/08 05:00:14;;;;;;;18.60;10.90;;;1.20;99.90;;;;;;4984065;28;91954;-36
2022/01/08 05:02:39;;;;;;;17.05;11.02;;;1.20;99.90;;;;;;4983359;28;89597;-37
2022/01/08 05:05:06;;;;;;;19.30;10.70;;;1.20;99.90;;;;;;4983973;28;88474;-38
2022/01/08 05:07:31;;;;;;;12.77;9.80;;;1.20;99.90;;;;;;4983540;28;88757;-41
2022/01/08 05:09:57;;;;;;;17.08;11.88;;;1.20;99.90;;;;;;4984274;28;88856;-37
2022/01/08 05:12:23;;;;;;;12.90;11.00;;;1.10;99.90;;;;;;4983305;28;90226;-38
2022/01/08 05:14:49;;;;;;;20.55;11.50;;;1.10;99.90;;;;;;4983255;28;88956;-34
2022/01/08 05:17:15;;;;;;;17.85;11.88;;;1.10;99.90;;;;;;4984134;28;88641;-37
2022/01/08 05:19:50;;;;;;;13.55;10.77;;;1.10;99.90;;;;;;4983404;28;90196;-42
2022/01/08 05:22:26;;;;;;;18.92;11.68;;;1.10;99.90;;;;;;4983825;28;89490;-42
2022/01/08 05:24:51;;;;;;;14.18;10.75;;;1.00;99.90;;;;;;4983443;28;87550;-39
2022/01/08 05:27:17;;;;;;;15.70;11.52;;;1.00;99.90;;;;;;4982948;28;89891;-36
2022/01/08 05:29:48;;;;;;;15.77;11.30;;;1.00;99.90;;;;;;4983572;28;90195;-45
2022/01/08 05:32:17;;;;;;;16.33;12.05;;;0.90;99.90;;;;;;4983532;28;89580;-41
2022/01/08 05:34:44;;;;;;;15.85;12.20;;;0.90;99.90;;;;;;4983647;28;87815;-41
2022/01/08 05:37:10;;;;;;;18.40;11.27;;;0.90;99.90;;;;;;4983324;28;88646;-44
2022/01/08 05:39:36;;;;;;;16.40;12.27;;;0.90;99.90;;;;;;4982834;28;89525;-37
2022/01/08 05:42:02;;;;;;;13.88;11.77;;;0.90;99.90;;;;;;4983572;28;89412;-45
2022/01/08 05:44:27;;;;;;;18.67;12.70;;;0.90;99.90;;;;;;4982905;28;90347;-39
2022/01/08 05:46:53;;;;;;;12.20;10.20;;;0.90;99.90;;;;;;4983192;28;88898;-43
2022/01/08 05:49:18;;;;;;;14.77;11.85;;;0.80;99.90;;;;;;4983139;28;90225;-37
2022/01/08 05:51:44;;;;;;;15.63;12.00;;;0.80;99.90;;;;;;4982806;28;89299;-35
2022/01/08 05:54:10;;;;;;;17.50;11.48;;;0.80;99.90;;;;;;4983179;28;89581;-41
2022/01/08 05:56:35;;;;;;;16.65;12.20;;;0.80;99.90;;;;;;4982203;28;88772;-42
2022/01/08 05:59:02;;;;;;;13.85;12.32;;;0.80;99.90;;;;;;4983194;28;89236;-39
2022/01/08 06:01:28;;;;;;;15.85;12.38;;;0.70;99.90;;;;;;4965204;28;89693;-36
2022/01/08 06:03:53;;;;;;;21.27;12.65;;;0.70;99.90;;;;;;4982635;28;89346;-39
2022/01/08 06:06:19;;;;;;;25.67;12.90;;;0.70;99.90;;;;;;4982666;28;90061;-43
2022/01/08 06:08:45;;;;;;;14.07;12.38;;;0.70;99.90;;;;;;4982000;28;90408;-38
2022/01/08 06:11:10;;;;;;;14.15;11.73;;;0.70;99.90;;;;;;4982702;28;89336;-42
2022/01/08 06:13:36;;;;;;;15.10;11.98;;;0.70;99.90;;;;;;4982162;28;88210;-40
2022/01/08 06:16:01;;;;;;;21.65;12.52;;;0.70;99.90;;;;;;4982378;28;89476;-46
2022/01/08 06:18:27;;;;;;;21.42;13.07;;;0.70;99.90;;;;;;4982520;28;89037;-36
2022/01/08 06:20:55;;;;;;;17.35;12.35;;;0.70;99.90;;;;;;4982953;28;88391;-40
2022/01/08 06:23:21;;;;;;;19.92;11.32;;;0.70;99.90;;;;;;4982006;28;89150;-39
2022/01/08 06:25:47;;;;;;;15.48;11.43;;;0.70;99.90;;;;;;4982585;28;87486;-39
2022/01/08 06:28:13;;;;;;;20.90;11.77;;;0.70;99.90;;;;;;4982368;28;90461;-44
2022/01/08 06:30:38;;;;;;;18.38;12.38;;;0.70;99.90;;;;;;4982387;28;89272;-35
2022/01/08 06:33:04;;;;;;;14.50;11.93;;;0.80;99.90;;;;;;4982489;28;88344;-34
2022/01/08 06:35:29;;;;;;;14.98;11.15;;;0.80;99.90;;;;;;4982270;28;89410;-40
2022/01/08 06:37:55;;;;;;;19.35;10.80;;;0.80;99.90;;;;;;4982355;28;90489;-38
2022/01/08 06:40:21;;;;;;;13.05;11.57;;;0.80;99.90;;;;;;4981503;28;89730;-33
2022/01/08 06:42:46;;;;;;;14.48;11.57;;;0.80;99.90;;;;;;4982590;28;87552;-38
2022/01/08 06:45:12;;;;;;;12.45;10.68;;;0.80;99.90;;;;;;4982049;28;87469;-39
2022/01/08 06:47:38;;;;;;;14.27;11.35;;;0.80;99.90;;;;;;4982155;28;89612;-40
2022/01/08 06:50:04;;;;;;;17.13;10.82;;;0.80;99.90;;;;;;4982034;28;89528;-35
2022/01/08 06:52:32;;;;;;;14.68;12.18;;;0.70;99.90;;;;;;4981637;28;89053;-41
2022/01/08 06:54:58;;;;;;;13.73;10.05;;;0.80;99.90;;;;;;4981830;28;89107;-44
2022/01/08 06:57:23;;;;;;;15.48;11.38;;;0.80;99.90;;;;;;4981881;28;91921;-38
2022/01/08 06:59:49;;;;;;;19.60;12.30;;;0.70;99.90;;;;;;4981266;28;89772;-39
2022/01/08 07:02:15;;;;;;;14.32;12.10;;;0.70;99.90;;;;;;4982564;28;89612;-45
2022/01/08 07:04:40;;;;;;;11.82;10.60;;;0.70;99.90;;;;;;4981369;28;88220;-34
2022/01/08 07:07:06;;;;;;;16.45;11.50;;;0.70;99.90;;;;;;4981737;28;90362;-42
2022/01/08 07:09:32;;;;;;;16.38;10.70;;;0.70;99.90;;;;;;4981323;28;90064;-39
2022/01/08 07:11:58;;;;;;;22.90;11.52;;;0.70;99.90;;;;;;4982289;28;87595;-43
2022/01/08 07:14:23;;;;;;;14.57;9.25;;;0.70;99.90;;;;;;4982085;28;89803;-35
2022/01/08 07:16:50;;;;;;;14.98;11.45;;;0.70;99.90;;;;;;4982694;28;90613;-37
2022/01/08 07:19:15;;;;;;;22.45;11.18;;;0.70;99.90;;;;;;4962515;28;91505;-45
2022/01/08 07:21:41;;;;;;;20.70;10.77;;;0.70;99.90;;;;;;4981555;28;88999;-40
2022/01/08 07:24:07;;;;;;;21.45;11.20;;;0.70;99.90;;;;;;4964051;28;87823;-36
2022/01/08 07:26:32;;;;;;;17.00;11.50;;;0.70;99.90;;;;;;4981594;28;91541;-42
2022/01/08 07:28:58;;;;;;;15.68;11.15;;;0.70;99.90;;;;;;4981035;28;90308;-39
2022/01/08 07:31:23;;;;;;;21.27;11.63;;;0.70;99.90;;;;;;4981497;28;89351;-38
2022/01/08 07:33:49;;;;;;;15.75;10.63;;;0.70;99.90;;;;;;4981396;28;88845;-35
2022/01/08 07:36:19;;;;;;;10.63;9.30;;;0.70;99.90;;;;;;4981578;28;90255;-40
2022/01/08 07:38:44;;;;;;;15.80;11.50;;;0.70;99.90;;;;;;4982462;28;89471;-35
2022/01/08 07:41:10;;;;;;;21.73;12.30;;;0.70;99.90;;;;;;4981017;28;87719;-44
2022/01/08 07:43:36;;;;;;;18.15;10.80;;;0.70;99.90;;;;;;4981055;28;89584;-36
2022/01/08 07:46:02;;;;;;;18.88;11.85;;;0.70;99.90;;;;;;4981979;28;90683;-36
2022/01/08 07:48:27;;;;;;;13.40;9.55;;;0.70;99.90;;;;;;4980892;28;89942;-38
2022/01/08 07:50:53;;;;;;;17.27;9.73;;;0.70;99.90;;;;;;4982942;28;88781;-36
2022/01/08 07:53:19;;;;;;;15.00;9.70;;;0.80;99.90;;;;;;4981738;28;90570;-36
2022/01/08 07:55:45;;;;;;;20.88;10.23;;;0.80;99.90;;;;;;4981753;28;90502;-40
2022/01/08 07:58:10;;;;;;;17.00;9.70;;;0.80;99.90;;;;;;4892851;28;90653;-38
2022/01/08 08:00:36;;;;;;;17.35;10.95;;;0.80;99.90;;;;;;4954275;28;88976;-34
2022/01/08 08:03:02;;;;;;;12.82;9.93;;;0.80;99.90;;;;;;4981051;28;88218;-41
2022/01/08 08:05:27;;;;;;;23.75;9.70;;;0.80;99.90;;;;;;4981079;28;90220;-42
2022/01/08 08:07:55;;;;;;;21.73;10.18;;;0.80;99.90;;;;;;4982698;28;88733;-35
2022/01/08 08:10:22;;;;;;;21.80;9.73;;;0.80;99.90;;;;;;4981379;28;87815;-35
2022/01/08 08:12:48;;;;;;;13.20;8.90;;;0.80;99.90;;;;;;4982036;28;90020;-39
2022/01/08 08:15:15;;;;;;;10.13;9.18;;;0.80;99.90;;;;;;4981420;28;91540;-43
2022/01/08 08:17:41;;;;;;;17.52;9.88;;;0.80;99.90;;;;;;4976568;28;89850;-39
2022/01/08 08:20:08;;;;;;;12.63;8.82;;;0.90;99.90;;;;;;4964415;28;88320;-40
2022/01/08 08:22:33;;;;;;;15.88;10.85;;;0.90;99.90;;;;;;4981287;28;89377;-37
2022/01/08 08:24:59;;;;;;;16.05;9.15;;;0.90;99.90;;;;;;4980530;28;89682;-37
2022/01/08 08:27:25;;;;;;;19.80;9.80;;;0.90;99.90;;;;;;4870981;28;89825;-38
2022/01/08 08:29:51;;;;;;;15.35;8.88;;;0.90;99.90;;;;;;4972421;28;90155;-43
2022/01/08 08:32:16;;;;;;;12.57;10.43;;;0.90;99.90;;;;;;4980934;28;88634;-41
2022/01/08 08:34:42;;;;;;;17.88;11.20;;;0.90;99.90;;;;;;4980337;28;90349;-45
2022/01/08 08:37:08;;;;;;;16.48;10.60;;;0.90;99.90;;;;;;4979799;28;90231;-40
2022/01/08 08:39:33;;;;;;;15.52;11.15;;;1.00;99.90;;;;;;4978449;28;88901;-41
2022/01/08 08:41:59;;;;;;;12.40;10.90;;;1.00;99.90;;;;;;4979946;28;89204;-38
2022/01/08 08:44:24;;;;;;;15.30;11.00;;;1.00;99.90;;;;;;4927002;28;88797;-34
2022/01/08 08:46:50;;;;;;;15.85;11.52;;;1.10;99.90;;;;;;4980442;28;89803;-43
2022/01/08 08:49:16;;;;;;;16.48;10.55;;;1.10;99.90;;;;;;4919826;28;89608;-43
2022/01/08 08:51:42;;;;;;;14.40;10.43;;;1.20;99.90;;;;;;4960461;28;88968;-39
2022/01/08 08:54:07;;;;;;;14.85;11.85;;;1.30;99.90;;;;;;4960487;28;90914;-36
2022/01/08 08:56:33;;;;;;;16.52;10.82;;;1.40;99.90;;;;;;4959760;28;90081;-42
2022/01/08 08:58:59;;;;;;;20.92;11.35;;;1.50;99.90;;;;;;4960956;28;87668;-40
2022/01/08 09:01:28;;;;;;;23.60;12.23;;;1.50;99.90;;;;;;4960775;28;87519;-38
2022/01/08 09:03:54;;;;;;;27.77;12.45;;;1.60;99.90;;;;;;4959972;28;90160;-40
2022/01/08 09:06:19;;;;;;;18.40;12.32;;;1.70;99.90;;;;;;4960401;28;89700;-38
2022/01/08 09:08:45;;;;;;;13.43;11.63;;;1.80;99.90;;;;;;4960449;28;88316;-41
2022/01/08 09:11:11;;;;;;;15.70;10.60;;;1.80;99.90;;;;;;4960655;28;89025;-36
2022/01/08 09:13:37;;;;;;;11.68;10.07;;;1.80;99.90;;;;;;4960262;28;90277;-33
2022/01/08 09:16:03;;;;;;;17.33;11.48;;;1.80;99.90;;;;;;4923646;28;88993;-42
2022/01/08 09:18:28;;;;;;;20.40;12.00;;;1.80;99.90;;;;;;4967064;28;89933;-42
2022/01/08 09:20:54;;;;;;;17.67;12.55;;;1.80;99.90;;;;;;4974053;28;88835;-44
2022/01/08 09:23:20;;;;;;;14.88;11.07;;;1.90;99.90;;;;;;4811170;28;91288;-40
2022/01/08 09:25:45;;;;;;;19.00;12.77;;;2.10;99.90;;;;;;4850290;28;91201;-41
2022/01/08 09:28:11;;;;;;;16.55;12.45;;;2.30;99.90;;;;;;4953591;28;88982;-38
2022/01/08 09:30:37;;;;;;;14.48;12.38;;;2.50;99.90;;;;;;4952917;28;88245;-41
2022/01/08 09:33:03;;;;;;;15.65;13.02;;;2.70;99.90;;;;;;4956057;28;90784;-37
2022/01/08 09:35:28;;;;;;;14.52;13.00;;;2.90;99.90;;;;;;4965777;28;90385;-37
2022/01/08 09:37:55;;;;;;;24.05;14.77;;;3.00;99.90;;;;;;4966229;28;88436;-41
2022/01/08 09:40:22;;;;;;;20.55;13.27;;;3.00;99.90;;;;;;4964625;28;88595;-39
2022/01/08 09:42:49;;;;;;;17.88;13.43;;;3.00;99.90;;;;;;4952605;28;90340;-42
2022/01/08 09:45:16;;;;;;;14.70;13.18;;;3.00;99.90;;;;;;4966745;28;89523;-34
2022/01/08 09:47:41;;;;;;;21.13;14.40;;;2.90;99.90;;;;;;4960903;28;88836;-43
2022/01/08 09:50:08;;;;;;;24.20;13.73;;;2.80;99.90;;;;;;4969071;28;90275;-38
2022/01/08 09:52:35;;;;;;;21.65;14.82;;;2.80;99.90;;;;;;4895579;28;91598;-39
2022/01/08 09:55:01;;;;;;;20.92;14.52;;;2.80;99.90;;;;;;4964010;28;90613;-40
2022/01/08 09:57:27;;;;;;;15.68;13.50;;;2.80;99.90;;;;;;4966171;28;87744;-41
2022/01/08 09:59:53;;;;;;;23.20;15.00;;;2.80;99.90;;;;;;4966933;28;89473;-38
2022/01/08 10:02:23;;;;;;;19.23;15.55;;;2.80;99.90;;;;;;4965937;28;90893;-44
2022/01/08 10:04:50;;;;;;;22.52;13.93;;;2.70;99.90;;;;;;4967382;28;90536;-37
2022/01/08 10:07:24;;;;;;;18.55;15.20;;;2.60;99.90;;;;;;4967232;28;88652;-42
2022/01/08 10:10:07;;;;;;;19.02;15.32;;;2.60;99.90;;;;;;4968520;28;88850;-44
2022/01/08 10:12:50;;;;;;;15.85;13.15;;;2.60;99.90;;;;;;4855323;28;90872;-40
2022/01/08 10:18:30;;;;;;;21.65;15.25;;;2.60;99.90;;;;;;4955596;28;87657;-41
2022/01/08 10:20:57;;;;;;;17.30;14.82;;;2.70;99.90;;;;;;4965323;28;89992;-38
2022/01/08 10:23:26;;;;;;;24.90;16.23;;;2.70;99.90;;;;;;4963458;28;90604;-40
2022/01/08 10:26:04;;;;;;;18.23;14.93;;;2.80;99.90;;;;;;4965666;28;89743;-41
2022/01/08 10:28:42;;;;;;;23.73;16.23;;;2.80;99.90;;;;;;4965690;28;88500;-42
2022/01/08 10:31:09;;;;;;;21.73;15.77;;;2.90;99.90;;;;;;4964132;28;87719;-40
2022/01/08 10:33:35;;;;;;;17.60;14.13;;;2.90;99.90;;;;;;4952114;28;90499;-40
2022/01/08 10:36:01;;;;;;;21.58;14.68;;;3.00;99.90;;;;;;4965230;28;89739;-44
2022/01/08 10:38:27;;;;;;;17.90;14.98;;;3.00;99.90;;;;;;4965747;28;89642;-44
2022/01/08 10:40:53;;;;;;;18.10;14.57;;;3.00;99.90;;;;;;4958500;28;88076;-42
2022/01/08 10:43:31;;;;;;;15.40;13.00;;;3.00;99.90;;;;;;4963656;28;90298;-41
2022/01/08 10:46:11;;;;;;;21.92;14.25;;;3.10;99.90;;;;;;4950569;28;90170;-45
2022/01/08 10:48:37;;;;;;;24.08;15.15;;;3.10;99.90;;;;;;4963478;28;90027;-39
2022/01/08 10:51:18;;;;;;;23.67;15.20;;;3.10;99.90;;;;;;4957633;28;88395;-43
2022/01/08 10:59:25;;;;;;;20.67;14.73;;;3.20;99.90;;;;;;4984135;28;88485;-42
2022/01/08 11:02:11;;;;;;;22.42;14.50;;;3.30;99.90;;;;;;4984847;28;88718;-42
2022/01/08 11:04:49;;;;;;;18.80;15.20;;;3.40;99.90;;;;;;4985768;28;90611;-46
2022/01/08 11:07:33;;;;;;;19.47;14.33;;;3.40;99.90;;;;;;4982647;28;90578;-42
2022/01/08 11:10:04;;;;;;;17.58;14.80;;;3.40;99.90;;;;;;4984400;28;87602;-41
2022/01/08 11:12:36;;;;;;;16.75;15.00;;;3.40;99.90;;;;;;4985757;28;89068;-41
2022/01/08 11:17:39;;;;;;;21.02;13.07;;;3.50;99.90;;;;;;4982285;28;89668;-44
2022/01/08 11:20:16;;;;;;;25.23;16.27;;;3.50;99.90;;;;;;4984834;28;88604;-37
2022/01/08 11:22:46;;;;;;;20.40;16.60;;;3.50;99.90;;;;;;4986162;28;90740;-42
2022/01/08 11:25:15;;;;;;;19.23;14.20;;;3.50;99.90;;;;;;4985367;28;90332;-42
2022/01/08 11:27:46;;;;;;;19.50;15.55;;;3.50;99.90;;;;;;4985793;28;90161;-40
2022/01/08 11:30:22;;;;;;;17.95;15.38;;;3.40;99.90;;;;;;4985094;28;88629;-46
2022/01/08 11:32:55;;;;;;;19.83;14.18;;;3.50;99.90;;;;;;4986121;28;88448;-42
2022/01/08 11:35:23;;;;;;;17.40;13.43;;;3.40;99.90;;;;;;4985083;28;89592;-43
2022/01/08 11:37:50;;;;;;;24.58;15.45;;;3.50;99.90;;;;;;4985674;28;89660;-45
2022/01/08 11:40:19;;;;;;;20.65;14.70;;;3.50;99.90;;;;;;4985743;28;87550;-45
2022/01/08 11:42:45;;;;;;;21.17;16.58;;;3.60;99.90;;;;;;4986100;28;88474;-41
2022/01/08 11:45:15;;;;;;;21.25;15.13;;;3.60;99.90;;;;;;4985240;28;90757;-46
2022/01/08 11:47:46;;;;;;;20.45;16.58;;;3.70;99.90;;;;;;4984809;28;90787;-38
2022/01/08 11:50:12;;;;;;;20.02;15.45;;;3.80;99.90;;;;;;4984749;28;89554;-39
2022/01/08 11:52:38;;;;;;;20.83;15.35;;;3.80;99.90;;;;;;4986141;28;90953;-41
2022/01/08 11:55:04;;;;;;;19.23;16.55;;;3.90;99.90;;;;;;4985439;28;90864;-40
2022/01/08 11:57:31;;;;;;;23.85;16.67;;;3.90;99.90;;;;;;4983848;28;89762;-38
2022/01/08 11:59:58;;;;;;;23.47;15.70;;;3.90;99.90;;;;;;4984296;28;90185;-45
2022/01/08 12:02:39;;;;;;;18.85;16.35;;;3.90;99.90;;;;;;4986294;28;89145;-42
2022/01/08 12:05:05;;;;;;;20.08;17.73;;;3.90;99.90;;;;;;4983818;28;90515;-39
2022/01/08 12:07:35;;;;;;;29.40;17.17;;;4.00;99.90;;;;;;4984386;28;90411;-41
2022/01/08 12:10:14;;;;;;;28.38;16.83;;;3.90;99.90;;;;;;4984477;28;88814;-43
2022/01/08 12:13:00;;;;;;;28.77;17.30;;;4.10;99.90;;;;;;4985191;28;89030;-44
2022/01/08 12:15:47;;;;;;;24.52;19.77;;;4.10;99.90;;;;;;4985258;28;90044;-41
2022/01/08 12:18:20;;;;;;;31.45;20.35;;;4.10;99.90;;;;;;4984220;28;90330;-42
2022/01/08 12:20:53;;;;;;;22.42;19.13;;;4.10;99.90;;;;;;4984865;28;88655;-40
2022/01/08 12:23:32;;;;;;;25.52;22.70;;;4.20;99.90;;;;;;4985127;28;90077;-41
2022/01/08 12:26:14;;;;;;;25.05;21.80;;;4.10;99.90;;;;;;4985545;28;91157;-46
2022/01/08 12:28:53;;;;;;;26.90;21.75;;;4.10;99.90;;;;;;4984798;28;90214;-42
2022/01/08 12:31:31;;;;;;;24.48;21.02;;;4.20;99.90;;;;;;4983770;28;89296;-47
2022/01/08 12:34:19;;;;;;;24.92;19.45;;;4.20;99.90;;;;;;4979451;28;87901;-38
2022/01/08 12:37:12;;;;;;;23.57;18.83;;;4.10;99.90;;;;;;4983648;28;90668;-40
2022/01/08 12:39:49;;;;;;;25.52;20.48;;;4.20;99.90;;;;;;4982608;28;90328;-39
2022/01/08 12:42:24;;;;;;;24.73;21.33;;;4.10;99.90;;;;;;4984854;28;90003;-43
2022/01/08 12:45:02;;;;;;;23.38;20.88;;;4.10;99.90;;;;;;4984702;28;88874;-46
2022/01/08 12:47:52;;;;;;;32.83;23.92;;;4.00;99.90;;;;;;4985292;28;90633;-42
2022/01/08 12:50:21;;;;;;;22.27;20.00;;;4.10;99.90;;;;;;4983870;28;89736;-47
2022/01/08 12:53:05;;;;;;;24.70;21.02;;;4.10;99.90;;;;;;4983919;28;89287;-45
2022/01/08 12:55:41;;;;;;;29.33;23.23;;;4.00;99.90;;;;;;4981479;28;88967;-43
2022/01/08 12:58:15;;;;;;;29.85;26.40;;;4.10;99.90;;;;;;4993215;28;89926;-45
2022/01/08 13:00:57;;;;;;;27.10;24.48;;;4.20;99.90;;;;;;4998043;28;90282;-42
2022/01/08 13:03:31;;;;;;;29.27;24.50;;;4.20;99.90;;;;;;5002249;28;89211;-44
2022/01/08 13:06:05;;;;;;;26.83;21.23;;;4.20;99.90;;;;;;5002432;28;90300;-41
2022/01/08 13:08:33;;;;;;;33.15;27.08;;;4.20;99.90;;;;;;4991703;28;90553;-44
2022/01/08 13:11:01;;;;;;;;;;;4.10;99.90;;;;;;4999385;28;89737;-43
2022/01/08 13:13:51;;;;;;;36.47;25.50;;;4.10;99.90;;;;;;5003512;28;88880;-41
2022/01/08 13:16:28;;;;;;;32.65;23.35;;;4.10;99.90;;;;;;4994938;28;88792;-46
2022/01/08 13:18:59;;;;;;;32.83;24.33;;;4.10;99.90;;;;;;4999784;28;90217;-42